Time;durP1;ratioP1;P1;durP2;ratioP2;P2;SDS_P1;SDS_P2;PMS_P1;PMS_P2;Temp;Humidity;BMP_temperature;BMP_pressure;BME280_temperature;BME280_humidity;BME280_pressure;Samples;Min_cycle;Max_cycle;Signal;HPM_P1;HPM_P2
2022/12/25 00:00:09;;;;;;;8.75;5.38;;;10.00;99.90;;;;;;4827098;29;20081;-71
2022/12/25 00:02:35;;;;;;;11.75;5.93;;;11.40;99.90;;;;;;4858584;29;20046;-70
2022/12/25 00:05:01;;;;;;;9.90;6.13;;;10.70;99.90;;;;;;4857716;29;20113;-69
2022/12/25 00:07:26;;;;;;;12.88;6.85;;;11.30;99.90;;;;;;4826970;29;20512;-69
2022/12/25 00:09:52;;;;;;;13.95;6.97;;;11.40;99.90;;;;;;4858124;29;20049;-71
2022/12/25 00:12:19;;;;;;;9.65;6.03;;;10.80;99.90;;;;;;4857485;29;20087;-70
2022/12/25 00:14:45;;;;;;;13.55;6.38;;;11.20;99.90;;;;;;4857034;29;20061;-72
2022/12/25 00:17:11;;;;;;;9.85;6.20;;;9.90;99.90;;;;;;4857329;29;20112;-69
2022/12/25 00:19:36;;;;;;;12.48;6.35;;;10.10;99.90;;;;;;4857039;29;20140;-70
2022/12/25 00:22:02;;;;;;;12.02;6.80;;;11.10;99.90;;;;;;4841965;29;20074;-69
2022/12/25 00:24:28;;;;;;;10.52;5.80;;;10.00;99.90;;;;;;4858178;29;20537;-70
2022/12/25 00:26:53;;;;;;;9.15;5.60;;;11.30;99.90;;;;;;4857319;29;20053;-70
2022/12/25 00:29:19;;;;;;;9.25;5.63;;;11.40;99.90;;;;;;4858352;29;20373;-70
2022/12/25 00:31:45;;;;;;;9.25;5.43;;;9.80;99.90;;;;;;4856973;29;20053;-70
2022/12/25 00:34:10;;;;;;;9.57;4.90;;;9.70;99.90;;;;;;4856871;29;20058;-71
2022/12/25 00:36:36;;;;;;;14.52;7.32;;;9.80;99.90;;;;;;4856917;29;20385;-69
2022/12/25 00:39:02;;;;;;;11.98;5.88;;;11.10;99.90;;;;;;4856744;29;20053;-69
2022/12/25 00:44:12;;;;;;;14.10;6.45;;;10.00;99.90;;;;;;4831156;29;20091;-70
2022/12/25 00:46:39;;;;;;;11.15;5.93;;;10.30;99.90;;;;;;4856813;29;20145;-71
2022/12/25 00:49:05;;;;;;;15.52;7.90;;;9.90;99.90;;;;;;4841512;29;20053;-70
2022/12/25 00:51:32;;;;;;;12.93;7.20;;;10.90;99.90;;;;;;4841482;29;20057;-70
2022/12/25 00:53:58;;;;;;;;;;;11.30;99.90;;;;;;4841925;29;20077;-69
2022/12/25 00:56:24;;;;;;;12.77;6.40;;;10.10;99.90;;;;;;4856975;29;20050;-70
2022/12/25 00:58:50;;;;;;;;;;;10.80;99.90;;;;;;4857174;29;20049;-71
2022/12/25 01:01:15;;;;;;;9.10;5.72;;;9.80;99.90;;;;;;4857005;29;19926;-70
2022/12/25 01:03:41;;;;;;;8.25;5.25;;;11.40;99.90;;;;;;4857979;29;20049;-70
2022/12/25 01:06:07;;;;;;;9.25;4.85;;;10.20;99.90;;;;;;4841385;29;20558;-70
2022/12/25 01:08:35;;;;;;;8.80;5.50;;;11.10;99.90;;;;;;4856488;29;20045;-70
2022/12/25 01:11:06;;;;;;;10.45;5.28;;;10.90;99.90;;;;;;4858152;29;20045;-70
2022/12/25 01:13:34;;;;;;;9.85;5.57;;;10.70;99.90;;;;;;4856646;29;20057;-70
2022/12/25 01:16:07;;;;;;;11.80;5.40;;;10.00;99.90;;;;;;4858075;29;20124;-70
2022/12/25 01:18:33;;;;;;;8.68;5.43;;;9.90;99.90;;;;;;4841102;29;20077;-70
2022/12/25 01:21:08;;;;;;;11.45;6.32;;;10.10;99.90;;;;;;4856696;29;20137;-70
2022/12/25 01:23:35;;;;;;;7.13;4.85;;;11.60;99.90;;;;;;4860017;29;20049;-70
2022/12/25 01:26:08;;;;;;;6.68;4.20;;;11.00;99.90;;;;;;4861497;29;20128;-69
2022/12/25 01:28:34;;;;;;;8.90;5.25;;;10.40;99.90;;;;;;4860195;29;20049;-70
2022/12/25 01:31:00;;;;;;;8.75;5.60;;;11.50;99.90;;;;;;4859698;29;20090;-70
2022/12/25 01:33:26;;;;;;;8.63;5.15;;;11.80;99.90;;;;;;4860225;29;20161;-70
2022/12/25 01:35:52;;;;;;;10.77;6.25;;;10.40;99.90;;;;;;4859925;29;20481;-70
2022/12/25 01:38:18;;;;;;;18.33;7.43;;;11.80;99.90;;;;;;4859981;29;20049;-70
2022/12/25 01:40:43;;;;;;;11.52;6.50;;;12.00;99.90;;;;;;4844450;29;20057;-70
2022/12/25 01:43:24;;;;;;;18.58;7.85;;;11.80;99.90;;;;;;4861132;29;20057;-69
2022/12/25 01:45:51;;;;;;;11.43;6.65;;;12.00;99.90;;;;;;4861147;29;20140;-70
2022/12/25 01:48:22;;;;;;;11.18;6.00;;;12.10;99.90;;;;;;4861029;29;20110;-70
2022/12/25 01:50:54;;;;;;;10.55;6.07;;;11.00;99.90;;;;;;4860018;29;20566;-70
2022/12/25 01:53:20;;;;;;;12.02;5.75;;;12.00;99.90;;;;;;4859459;29;20056;-70
2022/12/25 01:55:48;;;;;;;14.02;6.65;;;10.80;99.90;;;;;;4844302;29;20049;-71
2022/12/25 01:58:15;;;;;;;13.15;6.40;;;12.00;99.90;;;;;;4844222;29;20057;-71
2022/12/25 02:00:40;;;;;;;12.20;7.13;;;11.00;99.90;;;;;;4859584;29;20049;-71
2022/12/25 02:03:06;;;;;;;16.40;7.88;;;11.00;99.90;;;;;;4859450;29;20054;-70
2022/12/25 02:05:33;;;;;;;18.52;8.57;;;12.30;99.90;;;;;;4859569;29;20064;-70
2022/12/25 02:08:11;;;;;;;15.35;8.40;;;12.40;99.90;;;;;;4859408;29;20049;-70
2022/12/25 02:10:38;;;;;;;18.80;9.43;;;11.00;99.90;;;;;;4859396;29;20144;-70
2022/12/25 02:13:05;;;;;;;18.13;8.70;;;11.50;99.90;;;;;;4844235;29;20450;-70
2022/12/25 02:16:01;;;;;;;22.38;10.15;;;11.10;99.90;;;;;;4843977;29;20448;-70
2022/12/25 02:18:50;;;;;;;21.88;10.38;;;12.60;99.90;;;;;;4859060;29;20069;-69
2022/12/25 02:21:36;;;;;;;18.40;10.25;;;11.50;99.90;;;;;;4859193;29;20053;-69
2022/12/25 02:24:21;;;;;;;22.63;10.30;;;12.60;99.90;;;;;;4843396;29;20477;-69
2022/12/25 02:26:46;;;;;;;21.95;10.07;;;12.70;99.90;;;;;;4843730;29;20434;-70
2022/12/25 02:29:45;;;;;;;18.67;10.10;;;12.40;99.90;;;;;;4859013;29;20053;-69
2022/12/25 02:32:46;;;;;;;13.80;7.22;;;11.60;99.90;;;;;;4858818;29;20045;-70
2022/12/25 02:35:32;;;;;;;20.27;8.88;;;12.90;99.90;;;;;;4843012;29;20518;-69
2022/12/25 02:38:07;;;;;;;28.05;11.20;;;12.90;99.90;;;;;;4859704;29;20113;-70
2022/12/25 02:40:42;;;;;;;26.33;11.63;;;13.00;99.90;;;;;;4858616;29;20156;-69
2022/12/25 03:08:43;;;;;;;22.58;10.88;;;11.80;99.90;;;;;;4858334;29;20060;-70
2022/12/25 03:17:05;;;;;;;18.83;11.93;;;12.00;99.90;;;;;;4823926;29;20049;-70
2022/12/25 03:27:59;;;;;;;18.90;10.98;;;12.10;99.90;;;;;;4847976;29;20103;-69
2022/12/25 03:33:38;;;;;;;18.50;9.75;;;12.60;99.90;;;;;;4857821;29;20103;-69
2022/12/25 03:36:04;;;;;;;14.82;9.05;;;13.10;99.90;;;;;;4858820;29;20049;-69
2022/12/25 03:39:40;;;;;;;13.25;8.90;;;11.90;99.90;;;;;;4858193;29;20113;-75
2022/12/25 04:38:01;;;;;;;16.73;9.70;;;13.10;99.90;;;;;;4858235;29;20194;-76
2022/12/25 04:40:27;;;;;;;13.68;9.32;;;12.70;99.90;;;;;;4842386;29;20137;-76
2022/12/25 04:42:53;;;;;;;18.45;10.30;;;12.90;99.90;;;;;;4858159;29;20117;-76
2022/12/25 04:45:19;;;;;;;27.10;12.30;;;12.70;99.90;;;;;;4858180;29;20178;-75
2022/12/25 04:47:44;;;;;;;17.73;10.65;;;13.10;99.90;;;;;;4857967;29;20382;-75
2022/12/25 04:50:10;;;;;;;20.67;11.38;;;14.10;99.90;;;;;;4843208;29;20053;-75
2022/12/25 04:52:38;;;;;;;20.23;10.75;;;12.60;99.90;;;;;;4858021;29;20508;-75
2022/12/25 04:55:05;;;;;;;18.27;10.75;;;12.80;99.90;;;;;;4841874;29;20045;-75
2022/12/25 04:57:31;;;;;;;19.70;10.15;;;14.10;99.90;;;;;;4860769;29;20064;-75
2022/12/25 04:59:57;;;;;;;22.08;11.95;;;13.30;99.90;;;;;;4861584;29;20109;-76
2022/12/25 05:02:23;;;;;;;21.65;11.25;;;13.00;99.90;;;;;;4861397;29;20494;-75
2022/12/25 05:04:48;;;;;;;18.90;11.20;;;13.90;99.90;;;;;;4861854;29;20169;-76
2022/12/25 05:07:14;;;;;;;17.77;11.07;;;13.60;99.90;;;;;;4861761;29;20057;-76
2022/12/25 05:09:40;;;;;;;15.65;10.30;;;13.70;99.90;;;;;;4862291;29;20169;-75
2022/12/25 05:12:10;;;;;;;19.38;11.13;;;13.10;99.90;;;;;;4861569;29;20494;-76
2022/12/25 05:14:36;;;;;;;20.27;10.80;;;14.00;99.90;;;;;;4861234;29;20053;-76
2022/12/25 05:17:01;;;;;;;17.98;10.43;;;13.20;99.90;;;;;;4861942;29;20049;-75
2022/12/25 05:19:27;;;;;;;15.50;9.38;;;14.40;99.90;;;;;;4861373;29;20481;-75
2022/12/25 05:21:53;;;;;;;15.50;9.05;;;13.70;99.90;;;;;;4861814;29;20053;-76
2022/12/25 05:24:24;;;;;;;13.85;8.02;;;14.10;99.90;;;;;;4860741;29;20350;-75
2022/12/25 05:26:49;;;;;;;16.38;9.68;;;14.20;99.90;;;;;;4844985;29;20060;-75
2022/12/25 05:29:15;;;;;;;18.20;10.52;;;13.50;99.90;;;;;;4860811;29;20050;-75
2022/12/25 05:31:41;;;;;;;19.10;10.05;;;14.30;99.90;;;;;;4860615;29;20049;-76
2022/12/25 05:34:06;;;;;;;20.25;11.10;;;13.20;99.90;;;;;;4860801;29;20161;-75
2022/12/25 05:36:32;;;;;;;20.08;11.05;;;13.20;99.90;;;;;;4861154;29;20076;-76
2022/12/25 05:38:58;;;;;;;25.33;12.60;;;13.80;99.90;;;;;;4861083;29;20113;-75
2022/12/25 05:41:23;;;;;;;23.88;11.40;;;13.20;99.90;;;;;;4860441;29;20057;-75
2022/12/25 05:43:49;;;;;;;27.08;13.32;;;14.50;99.90;;;;;;4860437;29;20041;-75
2022/12/25 05:46:15;;;;;;;23.95;13.32;;;13.80;99.90;;;;;;4846062;29;20060;-75
2022/12/25 05:48:40;;;;;;;23.98;13.02;;;13.20;99.90;;;;;;4861647;29;20046;-75
2022/12/25 05:51:11;;;;;;;21.27;11.32;;;14.50;99.90;;;;;;4860715;29;20106;-75
2022/12/25 05:53:38;;;;;;;22.52;12.13;;;14.40;99.90;;;;;;4860148;29;20052;-76
2022/12/25 05:56:05;;;;;;;24.38;13.43;;;13.20;99.90;;;;;;4860521;29;20068;-76
2022/12/25 05:58:33;;;;;;;22.85;13.32;;;14.10;99.90;;;;;;4861018;29;20060;-76
2022/12/25 06:00:58;;;;;;;24.63;12.65;;;13.70;99.90;;;;;;4860196;29;20118;-75
2022/12/25 06:03:25;;;;;;;19.90;12.20;;;14.50;99.90;;;;;;4844654;29;20053;-75
2022/12/25 06:05:51;;;;;;;28.33;14.52;;;14.60;99.90;;;;;;4861449;29;20462;-75
2022/12/25 06:08:16;;;;;;;23.02;13.00;;;14.50;99.90;;;;;;4860845;29;20157;-75
2022/12/25 06:10:42;;;;;;;21.23;12.15;;;14.40;99.90;;;;;;4860647;29;20462;-75
2022/12/25 06:13:08;;;;;;;19.02;11.00;;;13.60;99.90;;;;;;4845245;29;20401;-76
2022/12/25 06:15:36;;;;;;;19.50;11.02;;;13.60;99.90;;;;;;4860279;29;20053;-75
2022/12/25 06:18:02;;;;;;;20.38;11.32;;;13.50;99.90;;;;;;4844614;29;20546;-75
2022/12/25 06:20:28;;;;;;;22.63;11.80;;;13.20;99.90;;;;;;4860112;29;20049;-75
2022/12/25 06:22:53;;;;;;;23.15;13.55;;;14.20;99.90;;;;;;4864135;29;20091;-75
2022/12/25 06:25:19;;;;;;;25.08;13.40;;;13.60;99.90;;;;;;4879418;29;20441;-75
2022/12/25 06:27:45;;;;;;;27.58;14.20;;;14.60;99.90;;;;;;4862894;29;20112;-76
2022/12/25 06:30:11;;;;;;;28.52;13.07;;;14.20;99.90;;;;;;4878122;29;20045;-76
2022/12/25 06:32:36;;;;;;;24.42;12.93;;;13.70;99.90;;;;;;4863723;29;20056;-76
2022/12/25 06:35:02;;;;;;;26.13;13.52;;;14.80;99.90;;;;;;4862505;29;20397;-76
2022/12/25 06:37:28;;;;;;;24.25;13.15;;;14.20;99.90;;;;;;4879304;29;20089;-76
2022/12/25 06:39:53;;;;;;;18.90;11.82;;;13.60;99.90;;;;;;4878248;29;20069;-76
2022/12/25 06:42:19;;;;;;;21.10;12.45;;;14.90;99.90;;;;;;4878741;29;20112;-75
2022/12/25 06:44:45;;;;;;;21.58;12.27;;;14.90;99.90;;;;;;4878621;29;20057;-75
2022/12/25 06:47:10;;;;;;;24.42;12.48;;;14.10;99.90;;;;;;4878559;29;20049;-76
2022/12/25 06:49:36;;;;;;;21.08;12.48;;;14.70;99.90;;;;;;4878071;29;20052;-75
2022/12/25 06:52:02;;;;;;;22.83;12.40;;;14.80;99.90;;;;;;4878434;29;20128;-75
2022/12/25 06:54:28;;;;;;;18.20;11.40;;;14.90;99.90;;;;;;4878197;29;20106;-75
2022/12/25 06:56:53;;;;;;;23.10;13.02;;;13.60;99.90;;;;;;4861967;29;20436;-75
2022/12/25 06:59:19;;;;;;;23.27;13.52;;;13.60;99.90;;;;;;4862167;29;20380;-75
2022/12/25 07:01:49;;;;;;;21.10;11.57;;;13.90;99.90;;;;;;4862181;29;20049;-75
2022/12/25 07:04:24;;;;;;;18.35;10.65;;;14.20;99.90;;;;;;4878124;29;20063;-75
2022/12/25 07:06:49;;;;;;;17.60;11.02;;;14.20;99.90;;;;;;4877775;29;20120;-75
2022/12/25 07:09:15;;;;;;;18.85;10.10;;;14.60;99.90;;;;;;4877641;29;20127;-75
2022/12/25 07:11:41;;;;;;;19.60;11.40;;;14.80;99.90;;;;;;4862571;29;20049;-75
2022/12/25 07:14:06;;;;;;;22.42;13.63;;;14.10;99.90;;;;;;4877430;29;20048;-76
2022/12/25 07:16:32;;;;;;;18.38;11.45;;;14.00;99.90;;;;;;4877719;29;20133;-76
2022/12/25 07:19:00;;;;;;;16.38;10.73;;;14.60;99.90;;;;;;4861454;29;20045;-74
2022/12/25 07:21:25;;;;;;;13.25;8.95;;;13.70;99.90;;;;;;4861999;29;20374;-75
2022/12/25 07:23:51;;;;;;;12.38;7.97;;;15.00;99.90;;;;;;4866030;29;20052;-75
2022/12/25 07:26:17;;;;;;;10.95;7.03;;;14.80;99.90;;;;;;4859115;29;20049;-76
2022/12/25 07:28:43;;;;;;;8.60;5.80;;;14.90;99.90;;;;;;4858794;29;20068;-75
2022/12/25 07:31:12;;;;;;;9.10;6.10;;;14.90;99.90;;;;;;4858812;29;20378;-76
2022/12/25 07:33:37;;;;;;;11.18;6.20;;;13.70;99.90;;;;;;4858450;29;20105;-76
2022/12/25 07:36:04;;;;;;;8.13;6.03;;;13.90;99.90;;;;;;4858750;29;20041;-75
2022/12/25 07:38:30;;;;;;;;;;;14.90;99.90;;;;;;4859127;29;20485;-75
2022/12/25 07:40:55;;;;;;;8.65;5.38;;;14.90;99.90;;;;;;4858569;29;19924;-75
2022/12/25 07:43:21;;;;;;;5.35;4.30;;;14.80;99.90;;;;;;4859401;29;20057;-75
2022/12/25 07:45:47;;;;;;;7.85;5.05;;;14.00;99.90;;;;;;4858425;29;20061;-75
2022/12/25 07:48:13;;;;;;;8.55;5.80;;;15.20;99.90;;;;;;4858942;29;20045;-75
2022/12/25 07:50:38;;;;;;;9.10;5.57;;;14.90;99.90;;;;;;4843602;29;20431;-75
2022/12/25 07:53:04;;;;;;;9.57;6.20;;;14.80;99.90;;;;;;4858820;29;20059;-75
2022/12/25 07:55:30;;;;;;;9.50;6.05;;;15.20;99.90;;;;;;4859107;29;20564;-75
2022/12/25 07:57:57;;;;;;;15.80;9.60;;;14.10;99.90;;;;;;4858588;29;20140;-75
2022/12/25 08:00:28;;;;;;;14.43;8.93;;;14.00;99.90;;;;;;4857990;29;20060;-75
2022/12/25 08:02:54;;;;;;;10.38;7.68;;;15.00;99.90;;;;;;4829361;29;20086;-75
2022/12/25 08:05:20;;;;;;;11.02;7.40;;;14.20;99.90;;;;;;4858909;29;20072;-75
2022/12/25 08:07:46;;;;;;;13.60;8.70;;;14.90;99.90;;;;;;4860181;29;20060;-75
2022/12/25 08:10:12;;;;;;;15.80;9.30;;;14.50;99.90;;;;;;4858804;29;20057;-76
2022/12/25 08:12:37;;;;;;;14.73;9.63;;;14.10;99.90;;;;;;4843564;29;20107;-75
2022/12/25 08:15:03;;;;;;;11.00;7.85;;;15.10;99.90;;;;;;4842624;29;20080;-75
2022/12/25 08:17:29;;;;;;;12.05;8.20;;;14.40;99.90;;;;;;4858620;29;20041;-76
2022/12/25 08:19:55;;;;;;;13.23;9.10;;;14.30;99.90;;;;;;4857864;29;20049;-76
2022/12/25 08:22:20;;;;;;;12.93;9.23;;;14.30;99.90;;;;;;4842839;29;20049;-76
2022/12/25 08:24:46;;;;;;;12.30;8.75;;;15.20;99.90;;;;;;4857888;29;20077;-75
2022/12/25 08:27:12;;;;;;;12.68;8.05;;;14.10;99.90;;;;;;4842462;29;20060;-76
2022/12/25 08:29:38;;;;;;;14.77;9.80;;;14.30;99.90;;;;;;4842177;29;20060;-76
2022/12/25 08:32:03;;;;;;;12.98;8.52;;;14.90;99.90;;;;;;4842469;29;20132;-76
2022/12/25 08:34:29;;;;;;;17.70;10.40;;;14.30;99.90;;;;;;4842663;29;20053;-76
2022/12/25 08:36:55;;;;;;;14.35;9.73;;;15.20;99.90;;;;;;4860117;29;20045;-75
2022/12/25 08:39:20;;;;;;;15.00;10.85;;;14.60;99.90;;;;;;4858529;29;20049;-75
2022/12/25 08:41:46;;;;;;;12.40;9.30;;;14.60;99.90;;;;;;4842824;29;20402;-76
2022/12/25 08:44:12;;;;;;;14.90;9.23;;;15.20;99.90;;;;;;4858264;29;20053;-75
2022/12/25 08:46:38;;;;;;;12.77;8.10;;;14.80;99.90;;;;;;4842912;29;20051;-76
2022/12/25 08:49:04;;;;;;;11.30;8.43;;;15.20;99.90;;;;;;4843108;29;20053;-76
2022/12/25 08:51:30;;;;;;;10.43;7.53;;;15.30;99.90;;;;;;4842265;29;20045;-76
2022/12/25 08:53:59;;;;;;;12.88;8.52;;;14.70;99.90;;;;;;4857733;29;20053;-78
2022/12/25 08:56:25;;;;;;;10.65;8.55;;;14.50;99.90;;;;;;4858067;29;20042;-76
2022/12/25 08:58:50;;;;;;;13.13;8.77;;;15.40;99.90;;;;;;4858144;29;20052;-76
2022/12/25 09:01:16;;;;;;;10.90;8.05;;;15.20;99.90;;;;;;4858806;29;20063;-76
2022/12/25 09:03:42;;;;;;;12.88;9.07;;;15.30;99.90;;;;;;4858469;29;20048;-76
2022/12/25 09:06:12;;;;;;;11.88;7.65;;;14.60;99.90;;;;;;4857259;29;20128;-77
2022/12/25 09:08:39;;;;;;;11.43;6.70;;;15.40;99.90;;;;;;4857405;29;20053;-76
2022/12/25 09:11:08;;;;;;;11.65;7.05;;;15.20;99.90;;;;;;4858070;29;20057;-75
2022/12/25 09:13:35;;;;;;;13.18;8.00;;;14.60;99.90;;;;;;4841971;29;20051;-76
2022/12/25 09:16:14;;;;;;;9.82;7.03;;;14.70;99.90;;;;;;4858187;29;20375;-76
2022/12/25 09:18:40;;;;;;;13.80;8.07;;;15.10;99.90;;;;;;4857620;29;20109;-76
2022/12/25 09:21:10;;;;;;;12.90;7.40;;;15.20;99.90;;;;;;4856790;29;20045;-70
2022/12/25 09:23:35;;;;;;;10.68;7.43;;;15.50;99.90;;;;;;4856512;29;20473;-69
2022/12/25 09:26:03;;;;;;;11.45;7.20;;;15.50;99.90;;;;;;4841405;29;20088;-69
2022/12/25 09:28:29;;;;;;;12.95;8.27;;;14.60;99.90;;;;;;4856566;29;20053;-69
2022/12/25 09:30:55;;;;;;;10.05;7.63;;;15.10;99.90;;;;;;4856635;29;20117;-69
2022/12/25 09:33:21;;;;;;;10.68;7.28;;;14.60;99.90;;;;;;4856530;29;20061;-70
2022/12/25 09:36:13;;;;;;;9.90;7.07;;;15.40;99.90;;;;;;4858124;29;20044;-70
2022/12/25 09:38:39;;;;;;;10.18;6.95;;;14.40;99.90;;;;;;4854267;29;20061;-69
2022/12/25 09:41:38;;;;;;;10.57;6.45;;;15.40;99.90;;;;;;4858167;29;20078;-71
2022/12/25 09:44:11;;;;;;;10.50;6.70;;;14.60;99.90;;;;;;4860373;29;20050;-70
2022/12/25 09:46:46;;;;;;;12.45;7.00;;;14.60;99.90;;;;;;4861437;29;20105;-70
2022/12/25 09:49:23;;;;;;;11.55;7.10;;;15.20;99.90;;;;;;4860457;29;20163;-76
2022/12/25 09:51:53;;;;;;;10.48;7.55;;;14.80;99.90;;;;;;4861857;29;20052;-76
2022/12/25 09:54:26;;;;;;;10.48;7.50;;;14.50;99.90;;;;;;4862285;29;20045;-75
2022/12/25 09:56:52;;;;;;;10.65;7.00;;;15.20;99.90;;;;;;4860960;29;20124;-76
2022/12/25 09:59:23;;;;;;;11.05;7.43;;;15.40;99.90;;;;;;4860942;29;20125;-76
2022/12/25 10:01:56;;;;;;;11.25;7.45;;;15.30;99.90;;;;;;4861468;29;20081;-76
2022/12/25 10:04:48;;;;;;;11.70;7.20;;;14.80;99.90;;;;;;4860448;29;20058;-70
2022/12/25 10:07:22;;;;;;;12.00;7.18;;;14.70;99.90;;;;;;4859492;29;20517;-70
2022/12/25 10:10:18;;;;;;;9.10;6.00;;;15.10;99.90;;;;;;4859221;29;20087;-70
2022/12/25 10:13:01;;;;;;;9.80;6.40;;;15.30;99.90;;;;;;4859455;29;20074;-70
2022/12/25 10:15:42;;;;;;;10.10;6.20;;;15.30;99.90;;;;;;4843687;29;20057;-70
2022/12/25 10:18:30;;;;;;;8.10;5.35;;;14.80;99.90;;;;;;4858931;29;20583;-71
2022/12/25 10:20:56;;;;;;;;;;;14.60;99.90;;;;;;4859401;29;20049;-70
2022/12/25 10:23:27;;;;;;;9.32;5.60;;;14.50;99.90;;;;;;4859131;29;19924;-70
2022/12/25 10:25:54;;;;;;;6.72;4.85;;;14.50;99.90;;;;;;4859025;29;20511;-70
2022/12/25 10:28:35;;;;;;;11.18;6.53;;;15.20;99.90;;;;;;4858770;29;20053;-70
2022/12/25 10:31:12;;;;;;;8.40;6.22;;;14.70;99.90;;;;;;4859019;29;20045;-70
2022/12/25 10:33:38;;;;;;;7.80;5.57;;;14.60;99.90;;;;;;4858628;29;20517;-70
2022/12/25 10:36:05;;;;;;;10.27;6.35;;;15.20;99.90;;;;;;4859445;29;20042;-70
2022/12/25 10:38:31;;;;;;;8.77;5.70;;;14.70;99.90;;;;;;4858663;29;20363;-70
2022/12/25 10:41:28;;;;;;;7.03;5.00;;;14.40;99.90;;;;;;4860305;29;20128;-70
2022/12/25 10:43:55;;;;;;;9.07;5.45;;;15.20;99.90;;;;;;4858966;29;20132;-70
2022/12/25 10:46:25;;;;;;;8.45;5.10;;;15.20;99.90;;;;;;4843232;29;20165;-71
2022/12/25 10:48:57;;;;;;;9.50;5.65;;;14.70;99.90;;;;;;4858723;29;20178;-71
2022/12/25 10:51:37;;;;;;;6.68;4.90;;;14.50;99.90;;;;;;4859855;29;20064;-70
2022/12/25 10:54:25;;;;;;;9.25;6.15;;;14.80;99.90;;;;;;4858492;29;20057;-70
2022/12/25 10:57:01;;;;;;;;;;;14.50;99.90;;;;;;4859663;29;20064;-70
2022/12/25 10:59:29;;;;;;;9.05;6.03;;;14.50;99.90;;;;;;4858312;29;19924;-69
2022/12/25 11:02:03;;;;;;;11.48;6.60;;;15.10;99.90;;;;;;4860030;29;20461;-69
2022/12/25 11:04:32;;;;;;;20.75;12.82;;;15.20;99.90;;;;;;4859532;29;20053;-70
2022/12/25 11:07:06;;;;;;;18.23;12.40;;;14.90;99.90;;;;;;4859951;29;20438;-70
2022/12/25 11:09:33;;;;;;;13.52;8.23;;;14.70;99.90;;;;;;4858355;29;20049;-70
2022/12/25 11:11:59;;;;;;;;;;;15.10;99.90;;;;;;4858894;29;20049;-69
2022/12/25 11:14:26;;;;;;;9.45;6.03;;;15.10;99.90;;;;;;4843050;29;20344;-70
2022/12/25 11:16:52;;;;;;;11.50;6.88;;;14.90;99.90;;;;;;4858544;29;20045;-70
2022/12/25 11:19:30;;;;;;;10.52;6.80;;;14.80;99.90;;;;;;4858112;29;20048;-70
2022/12/25 11:21:58;;;;;;;10.50;6.68;;;14.60;99.90;;;;;;4858132;29;20060;-69
2022/12/25 11:24:27;;;;;;;11.60;6.78;;;14.60;99.90;;;;;;4858057;29;20064;-70
2022/12/25 11:26:55;;;;;;;7.68;5.45;;;15.10;99.90;;;;;;4858026;29;20049;-69
2022/12/25 11:29:32;;;;;;;10.38;6.40;;;14.70;99.90;;;;;;4842717;29;20049;-69
2022/12/25 11:32:01;;;;;;;7.95;5.32;;;15.00;99.90;;;;;;4857822;29;20402;-70
2022/12/25 11:34:37;;;;;;;6.03;4.32;;;14.60;99.90;;;;;;4842323;29;20057;-70
2022/12/25 11:37:07;;;;;;;6.57;4.43;;;15.10;99.90;;;;;;4858131;29;20072;-70
2022/12/25 11:39:39;;;;;;;7.00;4.30;;;14.50;99.90;;;;;;4857725;29;20061;-69
2022/12/25 11:42:25;;;;;;;8.30;4.35;;;14.90;99.90;;;;;;4857959;29;20049;-70
2022/12/25 11:45:06;;;;;;;5.90;4.40;;;14.90;99.90;;;;;;4857916;29;20089;-69
2022/12/25 11:47:48;;;;;;;8.05;5.03;;;14.40;99.90;;;;;;4857626;29;20089;-69
2022/12/25 11:50:40;;;;;;;6.97;4.32;;;14.80;99.90;;;;;;4857686;29;20093;-69
2022/12/25 11:53:30;;;;;;;6.25;4.28;;;14.80;99.90;;;;;;4857876;29;20045;-70
2022/12/25 11:56:06;;;;;;;6.90;4.60;;;14.80;99.90;;;;;;4858809;29;20521;-69
2022/12/25 11:58:54;;;;;;;6.28;3.67;;;14.60;99.90;;;;;;4842368;29;20045;-70
2022/12/25 12:01:26;;;;;;;6.30;3.90;;;14.50;99.90;;;;;;4858213;29;20635;-70
2022/12/25 12:03:53;;;;;;;6.28;4.15;;;14.50;99.90;;;;;;4857477;29;20089;-70
2022/12/25 12:06:37;;;;;;;6.38;3.72;;;14.30;99.90;;;;;;4856900;29;20057;-70
2022/12/25 12:09:15;;;;;;;5.60;3.90;;;14.60;99.90;;;;;;4857383;29;20053;-70
2022/12/25 12:11:52;;;;;;;6.15;3.58;;;14.30;99.90;;;;;;4841830;29;20053;-70
2022/12/25 12:14:29;;;;;;;6.07;3.60;;;14.50;99.90;;;;;;4857146;29;20057;-70
2022/12/25 12:16:55;;;;;;;;;;;14.20;99.90;;;;;;4858129;29;20045;-70
2022/12/25 12:19:23;;;;;;;6.88;4.10;;;14.30;99.90;;;;;;4857124;29;20273;-70
2022/12/25 12:21:49;;;;;;;8.00;4.25;;;14.20;99.90;;;;;;4858615;29;20063;-70
2022/12/25 12:24:19;;;;;;;9.88;4.95;;;14.20;99.90;;;;;;4826520;29;20132;-70
2022/12/25 12:26:46;;;;;;;7.93;4.82;;;14.40;99.90;;;;;;4857315;29;20049;-70
2022/12/25 12:29:49;;;;;;;7.28;4.13;;;14.20;99.90;;;;;;4841679;29;20045;-69
2022/12/25 12:32:41;;;;;;;6.65;4.07;;;14.10;99.90;;;;;;4837266;29;20056;-70
2022/12/25 12:35:17;;;;;;;7.45;4.07;;;14.30;99.90;;;;;;4833511;29;20053;-69
2022/12/25 12:38:02;;;;;;;6.97;4.97;;;14.10;99.90;;;;;;4857061;29;20117;-70
2022/12/25 12:40:49;;;;;;;10.23;5.10;;;14.20;99.90;;;;;;4856817;29;20064;-70
2022/12/25 12:43:35;;;;;;;;;;;14.20;99.90;;;;;;4857335;29;20435;-69
2022/12/25 12:46:13;;;;;;;6.82;4.65;;;14.40;99.90;;;;;;4856938;29;19920;-69
2022/12/25 12:48:42;;;;;;;8.48;4.45;;;14.20;99.90;;;;;;4857148;29;20049;-69
2022/12/25 12:51:30;;;;;;;7.07;4.20;;;14.30;99.90;;;;;;4857115;29;20459;-69
2022/12/25 12:54:24;;;;;;;7.28;4.35;;;14.10;99.90;;;;;;4841290;29;20041;-69
2022/12/25 12:56:58;;;;;;;4.97;3.38;;;14.10;99.90;;;;;;4856920;29;20056;-69
2022/12/25 12:59:25;;;;;;;4.68;3.10;;;14.40;99.90;;;;;;4856752;29;20041;-70
2022/12/25 13:02:29;;;;;;;3.15;2.30;;;14.30;99.90;;;;;;4856826;29;20049;-70
2022/12/25 13:05:46;;;;;;;2.97;2.08;;;14.40;99.90;;;;;;4857054;29;20057;-70
2022/12/25 13:08:29;;;;;;;3.70;2.35;;;14.40;99.90;;;;;;4866944;29;20072;-70
2022/12/25 13:11:16;;;;;;;2.47;1.88;;;14.20;99.90;;;;;;4856908;29;20155;-70
2022/12/25 13:13:44;;;;;;;;;;;14.10;99.90;;;;;;4841737;29;20065;-70
2022/12/25 13:16:23;;;;;;;3.38;2.20;;;14.30;99.90;;;;;;4856601;29;19920;-70
2022/12/25 13:18:52;;;;;;;3.78;2.50;;;14.30;99.90;;;;;;4858896;29;20510;-69
2022/12/25 13:21:28;;;;;;;3.72;2.38;;;14.30;99.90;;;;;;4860293;29;20037;-70
2022/12/25 13:23:59;;;;;;;3.88;2.60;;;14.30;99.90;;;;;;4860328;29;20049;-71
2022/12/25 13:26:26;;;;;;;3.85;3.05;;;14.20;99.90;;;;;;4860010;29;20129;-69
2022/12/25 13:28:54;;;;;;;3.88;2.88;;;14.10;99.90;;;;;;4860173;29;20050;-69
2022/12/25 13:31:25;;;;;;;4.72;3.22;;;14.20;99.90;;;;;;4845026;29;20130;-69
2022/12/25 13:33:55;;;;;;;3.97;2.70;;;14.40;99.90;;;;;;4844396;29;20549;-70
2022/12/25 13:36:20;;;;;;;5.40;3.20;;;14.40;99.90;;;;;;4861497;29;20037;-70
2022/12/25 13:38:50;;;;;;;3.58;2.80;;;14.10;99.90;;;;;;4859785;29;20417;-70
2022/12/25 13:44:15;;;;;;;4.30;2.78;;;14.10;99.90;;;;;;4859675;29;20185;-70
2022/12/25 13:46:41;;;;;;;5.05;2.90;;;14.00;99.90;;;;;;4861101;29;20037;-69
2022/12/25 13:49:17;;;;;;;3.58;3.10;;;14.30;99.90;;;;;;4814161;29;20053;-69
2022/12/25 13:51:42;;;;;;;3.70;2.50;;;14.00;99.90;;;;;;4860039;29;20050;-69
2022/12/25 13:54:11;;;;;;;2.95;2.25;;;14.30;99.90;;;;;;4859641;29;20511;-69
2022/12/25 13:56:52;;;;;;;3.80;3.10;;;14.20;99.90;;;;;;4859607;29;20056;-70
2022/12/25 13:59:20;;;;;;;4.03;2.90;;;14.10;99.90;;;;;;4859691;29;20050;-69
2022/12/25 14:01:48;;;;;;;4.68;3.60;;;14.10;99.90;;;;;;4859628;29;20045;-69
2022/12/25 14:04:17;;;;;;;5.07;3.55;;;14.00;99.90;;;;;;4859787;29;20053;-70
2022/12/25 14:06:43;;;;;;;3.88;3.00;;;14.20;99.90;;;;;;4844167;29;20053;-70
2022/12/25 14:09:11;;;;;;;3.58;2.67;;;14.10;99.90;;;;;;4859353;29;20061;-70
2022/12/25 14:11:39;;;;;;;3.33;2.58;;;14.30;99.90;;;;;;4859807;29;20124;-69
2022/12/25 14:14:21;;;;;;;2.85;2.40;;;14.00;99.90;;;;;;4859297;29;20100;-69
2022/12/25 14:16:48;;;;;;;3.20;2.70;;;14.00;99.90;;;;;;4859668;29;20041;-70
2022/12/25 14:19:25;;;;;;;7.50;5.55;;;14.20;99.90;;;;;;4859297;29;20049;-70
2022/12/25 14:22:14;;;;;;;6.95;4.50;;;14.30;99.90;;;;;;4859267;29;20053;-70
2022/12/25 14:24:40;;;;;;;6.50;5.00;;;14.20;99.90;;;;;;4858672;29;20399;-70
2022/12/25 14:27:19;;;;;;;5.97;4.15;;;14.10;99.90;;;;;;4859139;29;20055;-69
2022/12/25 14:29:47;;;;;;;4.88;3.97;;;13.90;99.90;;;;;;4858658;29;20055;-70
2022/12/25 14:32:21;;;;;;;4.60;4.20;;;14.10;99.90;;;;;;4858821;29;20058;-70
2022/12/25 14:34:54;;;;;;;4.30;3.80;;;14.20;99.90;;;;;;4858867;29;20049;-70
2022/12/25 14:37:26;;;;;;;6.22;5.40;;;14.00;99.90;;;;;;4859094;29;20520;-70
2022/12/25 14:40:05;;;;;;;6.18;4.50;;;14.10;99.90;;;;;;4860170;29;20058;-69
2022/12/25 14:42:36;;;;;;;6.32;4.72;;;14.10;99.90;;;;;;4858868;29;20085;-70